Time;durP1;ratioP1;P1;durP2;ratioP2;P2;SDS_P1;SDS_P2;PMS_P1;PMS_P2;Temp;Humidity;BMP_temperature;BMP_pressure;BME280_temperature;BME280_humidity;BME280_pressure;Samples;Min_cycle;Max_cycle;Signal;HPM_P1;HPM_P2
2023/09/11 00:01:49;;;;;;;3.63;3.28;;;;;;;28.71;30.43;96565.22;5075782;28;20088;-27
2023/09/11 00:04:15;;;;;;;3.40;3.10;;;;;;;28.71;30.41;96561.69;5076058;28;20420;-28
2023/09/11 00:06:40;;;;;;;4.68;3.25;;;;;;;28.75;30.21;96562.84;5076171;28;20027;-28
2023/09/11 00:09:06;;;;;;;3.83;3.30;;;;;;;28.56;30.23;96562.34;5075510;28;20063;-28
2023/09/11 00:11:31;;;;;;;5.75;3.47;;;;;;;28.53;30.43;96561.38;5075702;28;20044;-28
2023/09/11 00:13:57;;;;;;;6.20;3.95;;;;;;;28.66;30.35;96562.59;5082633;28;20021;-28
2023/09/11 00:16:22;;;;;;;4.95;3.35;;;;;;;28.72;29.98;96547.19;5075447;28;20466;-28
2023/09/11 00:18:48;;;;;;;3.97;3.20;;;;;;;28.63;30.20;96560.88;5075425;28;20043;-27
2023/09/11 00:21:13;;;;;;;3.58;3.15;;;;;;;28.51;30.24;96549.25;5075388;28;20016;-28
2023/09/11 00:23:39;;;;;;;5.13;3.63;;;;;;;28.51;30.47;96554.84;5075463;28;20458;-28
2023/09/11 00:26:04;;;;;;;4.15;3.35;;;;;;;28.62;30.41;96548.97;5075394;28;20024;-28
2023/09/11 00:28:29;;;;;;;4.38;3.38;;;;;;;28.48;30.69;96539.19;5075180;28;20466;-28
2023/09/11 00:31:01;;;;;;;5.30;3.30;;;;;;;28.55;30.43;96544.84;5075414;28;20027;-28
2023/09/11 00:33:26;;;;;;;5.18;3.38;;;;;;;28.52;30.97;96545.16;5075366;28;20028;-27
2023/09/11 00:35:52;;;;;;;4.82;3.33;;;;;;;28.66;30.97;96538.22;5074393;28;20073;-28
2023/09/11 00:38:18;;;;;;;6.13;3.40;;;;;;;28.57;30.87;96541.47;5075176;28;20021;-27
2023/09/11 00:40:43;;;;;;;5.43;3.65;;;;;;;28.46;31.28;96539.72;5074813;28;20048;-28
2023/09/11 00:43:09;;;;;;;5.03;3.58;;;;;;;28.53;31.25;96535.50;5074702;28;20059;-27
2023/09/11 00:45:35;;;;;;;4.63;3.60;;;;;;;28.36;30.94;96538.69;5074994;28;20482;-28
2023/09/11 00:48:01;;;;;;;5.28;3.38;;;;;;;28.41;31.27;96539.88;5082454;28;20024;-28
2023/09/11 00:50:27;;;;;;;7.50;3.88;;;;;;;28.32;31.49;96531.94;5074511;28;20056;-28
2023/09/11 00:52:53;;;;;;;5.88;4.40;;;;;;;28.32;31.52;96534.72;5075231;28;20055;-28
2023/09/11 00:55:20;;;;;;;4.63;3.40;;;;;;;28.33;32.02;96522.28;5075208;28;20047;-28
2023/09/11 00:57:49;;;;;;;5.32;3.75;;;;;;;28.44;31.93;96527.59;5074615;28;20051;-27
2023/09/11 01:00:14;;;;;;;4.90;3.53;;;;;;;28.35;32.32;96530.88;5082736;28;20016;-28
2023/09/11 01:02:40;;;;;;;6.57;3.90;;;;;;;28.32;32.20;96523.56;5074694;28;20013;-28
2023/09/11 01:05:07;;;;;;;4.60;3.83;;;;;;;28.44;31.52;96527.59;5074151;28;20024;-27
2023/09/11 01:07:34;;;;;;;8.95;3.92;;;;;;;28.51;32.30;96538.09;5074720;28;20024;-28
2023/09/11 01:10:00;;;;;;;6.15;3.65;;;;;;;28.35;32.35;96536.44;5074619;28;20028;-28
2023/09/11 01:12:25;;;;;;;5.65;3.40;;;;;;;28.31;32.34;96531.22;5074741;28;20103;-27
2023/09/11 01:14:51;;;;;;;4.55;3.70;;;;;;;28.39;32.14;96537.63;5074409;28;20103;-28
2023/09/11 01:17:33;;;;;;;5.78;3.92;;;;;;;28.19;33.68;96532.75;5074145;28;20493;-27
2023/09/11 01:20:54;;;;;;;5.03;4.00;;;;;;;28.27;33.34;96530.06;5074409;28;20021;-28
2023/09/11 01:23:48;;;;;;;6.65;3.75;;;;;;;28.33;32.63;96533.44;5046461;28;20277;-28
2023/09/11 01:26:51;;;;;;;4.85;3.80;;;;;;;28.02;33.34;96532.38;5050449;28;20048;-27
2023/09/11 01:29:27;;;;;;;5.53;3.53;;;;;;;28.05;33.75;96529.25;5047387;28;20028;-30
2023/09/11 01:31:54;;;;;;;4.47;3.63;;;;;;;27.87;34.32;96524.56;5044509;28;20025;-27
2023/09/11 01:34:20;;;;;;;5.07;3.90;;;;;;;28.16;34.08;96531.78;5051084;28;20476;-28
2023/09/11 01:36:45;;;;;;;5.97;3.95;;;;;;;28.27;33.95;96525.22;5050365;28;20123;-28
2023/09/11 01:39:11;;;;;;;5.28;3.63;;;;;;;28.46;34.01;96527.81;5050595;28;20111;-29
2023/09/11 01:41:41;;;;;;;4.38;3.30;;;;;;;28.17;34.26;96519.34;5049583;28;20453;-27
2023/09/11 01:44:18;;;;;;;5.78;3.50;;;;;;;28.37;34.82;96531.06;5050627;28;20510;-29
2023/09/11 01:46:45;;;;;;;5.03;4.28;;;;;;;28.48;33.28;96528.00;5050061;28;20482;-27
2023/09/11 01:49:13;;;;;;;4.78;3.88;;;;;;;28.44;33.27;96524.81;5050657;28;20032;-27
2023/09/11 01:51:41;;;;;;;4.72;3.47;;;;;;;28.35;33.95;96520.47;5050701;28;20032;-29
2023/09/11 01:54:08;;;;;;;6.65;4.13;;;;;;;28.40;33.63;96516.03;5043048;28;20029;-28
2023/09/11 01:56:33;;;;;;;5.10;3.47;;;;;;;28.45;33.88;96523.53;5050621;28;20390;-28
2023/09/11 01:58:59;;;;;;;4.20;3.65;;;;;;;28.48;33.36;96514.06;5065875;28;20028;-28
2023/09/11 02:01:24;;;;;;;4.32;3.90;;;;;;;28.48;33.12;96508.50;5073721;28;20436;-28
2023/09/11 02:03:50;;;;;;;5.18;3.85;;;;;;;28.46;33.55;96505.50;5073233;28;20016;-29
2023/09/11 02:06:15;;;;;;;5.35;3.97;;;;;;;28.30;34.01;96510.19;5081077;28;20130;-28
2023/09/11 02:08:41;;;;;;;4.82;3.85;;;;;;;28.21;34.70;96507.84;5073307;28;20027;-28
2023/09/11 02:11:07;;;;;;;7.18;4.57;;;;;;;28.33;34.42;96511.88;5073487;28;20020;-27
2023/09/11 02:13:33;;;;;;;5.07;3.70;;;;;;;28.38;34.18;96499.09;5074151;28;20032;-28
2023/09/11 02:15:58;;;;;;;4.35;3.95;;;;;;;28.43;34.24;96509.38;5073338;28;20025;-30
2023/09/11 02:18:24;;;;;;;4.07;3.67;;;;;;;28.41;34.39;96509.19;5072897;28;20028;-28
2023/09/11 02:20:49;;;;;;;5.35;4.05;;;;;;;28.41;33.99;96501.56;5073573;28;20505;-28
2023/09/11 02:23:16;;;;;;;6.32;3.67;;;;;;;28.39;34.60;96506.19;5072972;28;20162;-30
2023/09/11 02:25:41;;;;;;;6.25;3.80;;;;;;;28.34;34.29;96505.00;5073381;28;20032;-28
2023/09/11 02:28:07;;;;;;;4.55;4.05;;;;;;;28.34;34.19;96496.66;5073064;28;20378;-29
2023/09/11 02:30:33;;;;;;;6.13;3.90;;;;;;;28.45;33.44;96501.94;5072945;28;20028;-28
2023/09/11 02:32:58;;;;;;;5.53;3.47;;;;;;;28.46;33.64;96505.50;5072897;28;20040;-28
2023/09/11 02:35:23;;;;;;;5.30;4.20;;;;;;;28.50;33.68;96503.13;5073306;28;20021;-28
2023/09/11 02:37:49;;;;;;;6.57;3.63;;;;;;;28.30;33.80;96506.66;5073004;28;20360;-28
2023/09/11 02:40:14;;;;;;;4.47;3.80;;;;;;;28.42;33.54;96499.53;5072920;28;20071;-29
2023/09/11 02:42:40;;;;;;;5.75;4.13;;;;;;;28.16;34.20;96498.31;5072798;28;20048;-28
2023/09/11 02:45:06;;;;;;;4.03;3.60;;;;;;;28.33;33.97;96494.41;5073031;28;20020;-28
2023/09/11 02:47:31;;;;;;;5.43;3.72;;;;;;;28.19;34.61;96497.25;5072867;28;20451;-28
2023/09/11 02:49:57;;;;;;;4.90;3.72;;;;;;;28.18;34.11;96500.59;5072759;28;20030;-28
2023/09/11 02:52:22;;;;;;;4.72;3.80;;;;;;;28.23;33.89;96503.25;5073130;28;20436;-28
2023/09/11 02:54:47;;;;;;;7.65;3.58;;;;;;;28.01;33.96;96498.16;5073372;28;20405;-29
2023/09/11 02:57:13;;;;;;;5.68;3.97;;;;;;;28.04;33.91;96491.50;5072790;28;20041;-28
2023/09/11 02:59:38;;;;;;;5.72;3.40;;;;;;;28.26;33.89;96498.63;5073351;28;20020;-29
2023/09/11 03:02:05;;;;;;;5.30;3.90;;;;;;;28.37;33.80;96495.56;5072719;28;20020;-28
2023/09/11 03:04:31;;;;;;;7.00;3.63;;;;;;;28.35;33.14;96492.56;5072950;28;20020;-27
2023/09/11 03:06:57;;;;;;;5.75;4.05;;;;;;;28.20;34.11;96498.00;5072845;28;20042;-28
2023/09/11 03:09:22;;;;;;;6.28;3.90;;;;;;;28.23;34.03;96497.66;5072697;28;20020;-28
2023/09/11 03:11:48;;;;;;;4.43;3.80;;;;;;;28.20;33.96;96498.75;5072836;28;20530;-27
2023/09/11 03:14:16;;;;;;;4.20;3.80;;;;;;;28.16;33.62;96498.31;5073271;28;20025;-27
2023/09/11 03:16:44;;;;;;;4.13;3.65;;;;;;;28.02;34.10;96499.66;5072635;28;20016;-28
2023/09/11 03:19:11;;;;;;;6.97;3.90;;;;;;;27.98;33.63;96488.09;5072841;28;20020;-27
2023/09/11 03:21:37;;;;;;;5.50;4.07;;;;;;;27.96;34.07;96489.91;5072707;28;20027;-28
2023/09/11 03:24:02;;;;;;;4.72;3.80;;;;;;;27.91;34.37;96485.97;5072784;28;20017;-28
2023/09/11 03:26:28;;;;;;;6.35;3.80;;;;;;;27.88;33.95;96487.06;5072666;28;20016;-27
2023/09/11 03:28:53;;;;;;;4.18;3.70;;;;;;;28.07;34.31;96486.88;5074765;28;20028;-28
2023/09/11 03:31:19;;;;;;;4.75;4.32;;;;;;;28.22;34.73;96473.84;5076239;28;20397;-28
2023/09/11 03:33:45;;;;;;;3.97;3.63;;;;;;;28.15;34.12;96482.13;5076528;28;20020;-27
2023/09/11 03:36:16;;;;;;;4.20;3.70;;;;;;;28.02;34.48;96482.94;5076407;28;20111;-28
2023/09/11 03:38:41;;;;;;;7.30;3.90;;;;;;;28.04;34.03;96485.94;5076381;28;20470;-27
2023/09/11 03:41:07;;;;;;;4.05;3.65;;;;;;;27.85;34.67;96479.78;5076381;28;20024;-28
2023/09/11 03:43:32;;;;;;;5.70;4.07;;;;;;;28.05;34.12;96495.06;5076143;28;20680;-30
2023/09/11 03:45:57;;;;;;;4.65;3.72;;;;;;;27.84;35.30;96483.84;5076891;28;20459;-28
2023/09/11 03:48:23;;;;;;;6.15;3.67;;;;;;;28.01;34.40;96483.47;5076497;28;20073;-29
2023/09/11 03:50:48;;;;;;;5.30;3.75;;;;;;;27.94;33.79;96482.13;5075712;28;20043;-28
2023/09/11 03:53:14;;;;;;;7.03;4.55;;;;;;;28.01;33.96;96480.69;5076166;28;20055;-29
2023/09/11 03:55:39;;;;;;;5.85;4.10;;;;;;;27.86;34.88;96475.69;5083491;28;20024;-28
2023/09/11 03:58:05;;;;;;;5.53;3.65;;;;;;;27.90;35.41;96481.69;5076086;28;20063;-28
2023/09/11 04:00:30;;;;;;;5.82;3.95;;;;;;;27.92;34.95;96483.94;5075862;28;20017;-29
2023/09/11 04:02:55;;;;;;;4.65;4.25;;;;;;;28.05;34.75;96481.84;5076141;28;20051;-28
2023/09/11 04:05:21;;;;;;;4.88;4.10;;;;;;;27.98;34.29;96484.56;5075940;28;20031;-28
2023/09/11 04:07:46;;;;;;;5.10;3.80;;;;;;;28.03;34.75;96476.06;5076006;28;20025;-28
2023/09/11 04:10:12;;;;;;;8.35;4.53;;;;;;;27.86;34.79;96484.06;5075681;28;20023;-29
2023/09/11 04:12:37;;;;;;;5.95;4.10;;;;;;;27.71;35.07;96481.84;5076473;28;20428;-28
2023/09/11 04:15:03;;;;;;;6.38;4.45;;;;;;;27.85;34.76;96477.72;5075345;28;20031;-28
2023/09/11 04:17:29;;;;;;;6.20;4.40;;;;;;;27.82;34.54;96480.84;5076393;28;20055;-29
2023/09/11 04:19:54;;;;;;;5.80;4.40;;;;;;;27.87;34.73;96480.72;5075631;28;20453;-28
2023/09/11 04:22:19;;;;;;;9.15;4.20;;;;;;;27.70;34.28;96485.16;5074582;28;20050;-28
2023/09/11 04:24:45;;;;;;;6.10;4.03;;;;;;;27.79;34.76;96473.59;5075809;28;20020;-28
2023/09/11 04:27:10;;;;;;;6.05;4.22;;;;;;;27.78;34.86;96475.63;5075108;28;20025;-28
2023/09/11 04:29:36;;;;;;;5.20;4.15;;;;;;;27.83;34.75;96471.94;5075483;28;20401;-27
2023/09/11 04:32:02;;;;;;;5.03;3.67;;;;;;;27.86;35.01;96475.69;5075490;28;20098;-28
2023/09/11 04:34:27;;;;;;;7.03;4.15;;;;;;;27.73;35.08;96475.75;5075136;28;20036;-28
2023/09/11 04:36:52;;;;;;;9.52;4.93;;;;;;;27.83;34.92;96471.19;5075331;28;20039;-27
2023/09/11 04:39:18;;;;;;;7.05;4.30;;;;;;;27.68;34.78;96473.84;5074576;28;20519;-28
2023/09/11 04:41:43;;;;;;;7.80;4.55;;;;;;;27.67;34.97;96469.56;5074773;28;20394;-28
2023/09/11 04:44:09;;;;;;;6.63;4.20;;;;;;;27.71;34.85;96470.69;5075012;28;20413;-28
2023/09/11 04:46:34;;;;;;;5.03;4.00;;;;;;;27.76;34.44;96478.19;5075141;28;20473;-28
2023/09/11 04:49:00;;;;;;;7.30;4.07;;;;;;;27.74;35.23;96477.25;5074681;28;20488;-28
2023/09/11 04:51:25;;;;;;;7.40;4.32;;;;;;;27.77;33.60;96485.28;5075092;28;20048;-28
2023/09/11 04:53:51;;;;;;;5.90;4.22;;;;;;;27.87;34.06;96480.72;5074781;28;20016;-29
2023/09/11 04:56:16;;;;;;;4.13;3.60;;;;;;;27.94;34.25;96479.34;5074914;28;20017;-28
2023/09/11 04:58:43;;;;;;;6.82;3.78;;;;;;;27.79;33.67;96479.16;5074465;28;20043;-29
2023/09/11 05:01:08;;;;;;;5.00;3.75;;;;;;;27.88;33.55;96473.88;5074666;28;20013;-29
2023/09/11 05:03:34;;;;;;;4.88;3.67;;;;;;;27.80;34.08;96477.88;5075028;28;20445;-28
2023/09/11 05:06:00;;;;;;;6.03;3.97;;;;;;;27.78;34.41;96477.66;5074526;28;20418;-28
2023/09/11 05:08:25;;;;;;;5.95;3.90;;;;;;;27.95;33.85;96489.16;5074884;28;20031;-28
2023/09/11 05:10:51;;;;;;;4.07;3.67;;;;;;;27.76;34.05;96491.38;5074945;28;20025;-29
2023/09/11 05:13:16;;;;;;;4.65;4.00;;;;;;;27.80;33.78;96489.78;5074407;28;20021;-29
2023/09/11 05:15:42;;;;;;;5.32;3.40;;;;;;;27.93;33.19;96496.59;5074419;28;20047;-28
2023/09/11 05:18:07;;;;;;;9.82;4.72;;;;;;;27.92;33.50;96495.09;5074394;28;20074;-28
2023/09/11 05:20:32;;;;;;;6.40;4.30;;;;;;;27.92;33.45;96495.84;5081940;28;20918;-28
2023/09/11 05:22:58;;;;;;;6.78;5.45;;;;;;;27.85;33.67;96497.25;5074616;28;20378;-29
2023/09/11 05:25:24;;;;;;;11.23;7.45;;;;;;;27.75;33.98;96501.78;5074022;28;20070;-28
2023/09/11 05:27:50;;;;;;;7.40;4.78;;;;;;;27.89;33.67;96497.66;5074419;28;20032;-28
2023/09/11 05:30:16;;;;;;;5.80;4.70;;;;;;;27.92;34.00;96501.41;5074284;28;20021;-29
2023/09/11 05:32:41;;;;;;;5.32;4.00;;;;;;;27.84;33.99;96495.75;5082090;28;20032;-29
2023/09/11 05:35:07;;;;;;;5.47;3.90;;;;;;;27.84;33.86;96497.78;5074097;28;20036;-27
2023/09/11 05:37:33;;;;;;;6.40;3.85;;;;;;;27.84;33.77;96498.53;5074627;28;20236;-28
2023/09/11 05:40:00;;;;;;;8.43;4.10;;;;;;;27.90;34.27;96504.00;5074119;28;20029;-28
2023/09/11 05:42:26;;;;;;;5.72;3.90;;;;;;;27.93;33.82;96500.13;5073578;28;20040;-28
2023/09/11 05:44:51;;;;;;;4.30;3.90;;;;;;;27.89;34.17;96502.50;5073765;28;20028;-28
2023/09/11 05:47:36;;;;;;;4.80;3.60;;;;;;;27.84;34.29;96497.78;5074023;28;20450;-28
2023/09/11 05:50:02;;;;;;;7.53;4.65;;;;;;;28.01;34.30;96503.00;5081340;28;20525;-28
2023/09/11 05:52:28;;;;;;;6.85;4.35;;;;;;;27.86;34.21;96495.97;5073581;28;20020;-28
2023/09/11 05:54:53;;;;;;;5.53;4.25;;;;;;;27.98;34.21;96506.84;5081071;28;20016;-28
2023/09/11 05:57:19;;;;;;;8.98;4.18;;;;;;;27.88;34.43;96507.31;5073757;28;20047;-28
2023/09/11 05:59:45;;;;;;;9.60;4.13;;;;;;;27.91;34.40;96499.91;5073636;28;20027;-28
2023/09/11 06:02:11;;;;;;;4.70;3.85;;;;;;;28.07;34.03;96500.81;5074443;28;20031;-28
2023/09/11 06:04:36;;;;;;;5.80;4.10;;;;;;;28.09;34.01;96503.81;5073624;28;20470;-28
2023/09/11 06:07:03;;;;;;;7.47;4.65;;;;;;;28.01;34.52;96500.94;5073338;28;20032;-27
2023/09/11 06:09:29;;;;;;;5.15;4.05;;;;;;;28.09;34.67;96503.81;5073854;28;20021;-28
2023/09/11 06:11:54;;;;;;;7.68;4.70;;;;;;;28.00;34.99;96509.84;5073293;28;20043;-29
2023/09/11 06:14:20;;;;;;;9.35;5.38;;;;;;;28.02;35.34;96505.25;5073184;28;20052;-28
2023/09/11 06:16:45;;;;;;;6.88;4.80;;;;;;;28.06;35.68;96508.44;5073433;28;20020;-28
2023/09/11 06:19:11;;;;;;;5.65;4.68;;;;;;;27.98;35.67;96504.81;5073243;28;20050;-29
2023/09/11 06:21:36;;;;;;;5.22;4.70;;;;;;;27.89;36.73;96506.03;5073262;28;20063;-28
2023/09/11 06:24:04;;;;;;;7.05;4.35;;;;;;;28.08;35.98;96514.22;5073098;28;20036;-28
2023/09/11 06:26:29;;;;;;;6.32;4.15;;;;;;;28.02;36.25;96502.44;5072962;28;20428;-28
2023/09/11 06:28:55;;;;;;;7.95;4.40;;;;;;;28.19;35.71;96511.19;5073070;28;20024;-28
2023/09/11 06:31:21;;;;;;;8.43;4.57;;;;;;;28.08;36.30;96513.47;5073258;28;20028;-28
2023/09/11 06:33:46;;;;;;;7.38;4.10;;;;;;;28.07;36.66;96512.72;5073756;28;20062;-28
2023/09/11 06:36:13;;;;;;;7.28;4.32;;;;;;;28.06;37.27;96510.50;5073511;28;20458;-27
2023/09/11 06:38:38;;;;;;;5.03;4.20;;;;;;;28.11;37.10;96512.38;5073412;28;20077;-28
2023/09/11 06:41:04;;;;;;;8.70;4.28;;;;;;;28.04;37.23;96521.44;5072713;28;20522;-28
2023/09/11 06:43:29;;;;;;;6.55;4.60;;;;;;;28.06;37.29;96521.63;5072920;28;20036;-28
2023/09/11 06:45:56;;;;;;;9.27;4.68;;;;;;;28.10;37.55;96520.00;5080525;28;20049;-28
2023/09/11 06:48:22;;;;;;;7.18;4.50;;;;;;;28.15;36.96;96523.97;5071925;28;20021;-28
2023/09/11 06:50:47;;;;;;;7.88;4.00;;;;;;;27.97;38.06;96531.19;5072934;28;20536;-28
2023/09/11 06:53:13;;;;;;;6.18;3.90;;;;;;;27.88;37.53;96524.03;5073166;28;20103;-28
2023/09/11 06:55:45;;;;;;;8.05;4.25;;;;;;;27.85;38.07;96524.38;5073494;28;20021;-28
2023/09/11 06:58:12;;;;;;;7.10;3.92;;;;;;;27.73;37.63;96528.69;5080136;28;20016;-27
2023/09/11 07:00:37;;;;;;;9.25;3.88;;;;;;;27.78;37.65;96527.81;5073038;28;20524;-28
2023/09/11 07:03:03;;;;;;;8.50;4.03;;;;;;;27.96;36.98;96535.25;5073878;28;20036;-28
2023/09/11 07:05:28;;;;;;;15.05;4.07;;;;;;;27.97;37.32;96531.19;5076993;28;20027;-29
2023/09/11 07:07:54;;;;;;;5.00;3.83;;;;;;;27.90;37.09;96537.44;5076947;28;20108;-27
2023/09/11 07:10:19;;;;;;;7.53;3.90;;;;;;;27.72;37.35;96527.19;5076719;28;20373;-28
2023/09/11 07:12:46;;;;;;;7.80;3.88;;;;;;;28.00;36.93;96535.69;5076960;28;20110;-28
2023/09/11 07:15:12;;;;;;;4.70;4.30;;;;;;;28.08;36.85;96536.50;5076723;28;20020;-28
2023/09/11 07:17:37;;;;;;;6.43;4.07;;;;;;;28.22;36.76;96531.66;5077022;28;20046;-28
2023/09/11 07:20:04;;;;;;;6.70;4.07;;;;;;;28.18;36.73;96532.03;5076943;28;20394;-28
2023/09/11 07:22:30;;;;;;;6.60;4.05;;;;;;;28.04;36.91;96533.34;5076539;28;20055;-28
2023/09/11 07:24:56;;;;;;;6.03;4.60;;;;;;;28.27;36.37;96541.22;5076725;28;20071;-28
2023/09/11 07:27:22;;;;;;;4.90;4.30;;;;;;;27.91;36.94;96543.75;5076467;28;20024;-27
2023/09/11 07:29:49;;;;;;;5.38;4.45;;;;;;;28.06;36.78;96550.28;5076483;28;20405;-27
2023/09/11 07:32:14;;;;;;;4.68;4.28;;;;;;;28.05;36.81;96543.19;5076355;28;20043;-28
2023/09/11 07:34:40;;;;;;;4.97;3.80;;;;;;;28.00;36.50;96546.84;5076612;28;20486;-29
2023/09/11 07:37:05;;;;;;;6.10;4.47;;;;;;;28.06;36.29;96558.63;5076719;28;20024;-28
2023/09/11 07:39:31;;;;;;;6.20;4.20;;;;;;;28.12;36.08;96556.47;5076035;28;20370;-27
2023/09/11 07:41:56;;;;;;;11.13;4.63;;;;;;;28.21;36.40;96555.28;5076153;28;20040;-28
2023/09/11 07:44:22;;;;;;;6.43;4.18;;;;;;;28.18;36.65;96557.13;5076231;28;20112;-28
2023/09/11 07:46:48;;;;;;;7.40;4.22;;;;;;;28.19;36.31;96564.16;5076099;28;20052;-27
2023/09/11 07:49:14;;;;;;;4.85;3.72;;;;;;;28.06;36.33;96558.63;5076197;28;20490;-28
2023/09/11 07:51:39;;;;;;;7.72;4.38;;;;;;;28.22;35.77;96565.13;5076125;28;20104;-27
2023/09/11 07:54:05;;;;;;;5.90;4.35;;;;;;;28.09;35.61;96554.75;5076848;28;20465;-27
2023/09/11 07:56:30;;;;;;;7.75;4.20;;;;;;;28.34;35.25;96560.03;5076180;28;20016;-28
2023/09/11 07:58:56;;;;;;;6.20;4.35;;;;;;;28.29;35.58;96560.94;5076047;28;20484;-28
2023/09/11 08:01:25;;;;;;;4.95;3.67;;;;;;;28.37;35.12;96562.50;5076041;28;20058;-28
2023/09/11 08:03:51;;;;;;;5.75;4.10;;;;;;;28.46;35.03;96572.44;5076076;28;20035;-27
2023/09/11 08:06:16;;;;;;;6.45;4.22;;;;;;;28.47;34.86;96568.38;5075848;28;20024;-28
2023/09/11 08:08:45;;;;;;;8.55;4.07;;;;;;;28.49;35.00;96574.91;5074594;28;20523;-28
2023/09/11 08:11:20;;;;;;;4.78;3.80;;;;;;;28.46;34.34;96570.41;5075398;28;20504;-28
2023/09/11 08:13:48;;;;;;;7.13;3.90;;;;;;;28.59;33.92;96569.59;5075866;28;20025;-28
2023/09/11 08:16:14;;;;;;;4.55;3.75;;;;;;;28.46;34.22;96566.84;5074415;28;20489;-28
2023/09/11 08:18:40;;;;;;;4.88;4.20;;;;;;;28.69;33.58;96570.59;5075793;28;20088;-29
2023/09/11 08:21:05;;;;;;;6.22;4.13;;;;;;;28.83;33.84;96568.53;5075482;28;20028;-28
2023/09/11 08:23:31;;;;;;;5.53;3.88;;;;;;;28.74;33.82;96572.53;5075573;28;20028;-29
2023/09/11 08:25:58;;;;;;;4.93;3.83;;;;;;;28.57;34.13;96563.81;5075340;28;20025;-28
2023/09/11 08:28:23;;;;;;;4.80;3.58;;;;;;;28.82;33.76;96567.03;5075110;28;20367;-28
2023/09/11 08:30:51;;;;;;;4.03;3.25;;;;;;;28.86;33.89;96570.22;5075371;28;20070;-29
2023/09/11 08:33:17;;;;;;;8.75;3.95;;;;;;;28.91;33.62;96570.09;5075553;28;20116;-28
2023/09/11 08:35:43;;;;;;;4.93;3.70;;;;;;;28.71;33.57;96559.66;5075590;28;20116;-28
2023/09/11 08:38:09;;;;;;;6.70;3.40;;;;;;;28.69;33.37;96565.03;5075334;28;20020;-28
2023/09/11 08:40:34;;;;;;;6.57;4.10;;;;;;;28.79;33.51;96557.72;5075232;28;20100;-27
2023/09/11 08:43:00;;;;;;;4.30;3.60;;;;;;;28.77;32.81;96559.53;5075203;28;20545;-27
2023/09/11 08:45:26;;;;;;;5.28;3.65;;;;;;;28.81;33.24;96565.53;5075093;28;20016;-28
2023/09/11 08:47:57;;;;;;;4.00;3.60;;;;;;;28.82;33.10;96564.97;5075239;28;20023;-29
2023/09/11 08:50:27;;;;;;;5.75;3.63;;;;;;;28.77;33.21;96573.47;5075277;28;20029;-28
2023/09/11 08:52:53;;;;;;;4.18;3.75;;;;;;;28.87;33.14;96568.94;5074938;28;20021;-28
2023/09/11 08:55:21;;;;;;;8.18;3.90;;;;;;;28.95;32.69;96564.91;5075793;28;20108;-28
2023/09/11 08:57:47;;;;;;;6.63;3.80;;;;;;;29.08;32.90;96560.53;5074898;28;20362;-28
2023/09/11 09:00:14;;;;;;;6.43;3.95;;;;;;;28.95;32.70;96559.31;5082402;28;20020;-28
2023/09/11 09:02:41;;;;;;;5.30;3.72;;;;;;;28.93;32.42;96561.19;5074907;28;20017;-28
2023/09/11 09:05:07;;;;;;;5.90;3.47;;;;;;;28.90;32.39;96565.81;5074686;28;20024;-28
2023/09/11 09:07:32;;;;;;;5.47;3.60;;;;;;;28.92;32.30;96559.69;5074612;28;20024;-29
2023/09/11 09:09:59;;;;;;;6.03;3.55;;;;;;;28.96;32.24;96557.28;5074262;28;20020;-28
2023/09/11 09:12:26;;;;;;;6.05;4.00;;;;;;;29.03;32.19;96555.84;5075201;28;20091;-28
2023/09/11 09:14:52;;;;;;;4.10;3.45;;;;;;;28.94;31.92;96557.81;5074589;28;20109;-29
2023/09/11 09:17:17;;;;;;;5.68;4.20;;;;;;;28.88;32.10;96554.44;5074357;28;20108;-28
2023/09/11 09:19:43;;;;;;;5.57;3.10;;;;;;;28.92;32.09;96543.69;5074381;28;20016;-28
2023/09/11 09:22:10;;;;;;;4.65;3.47;;;;;;;28.99;31.98;96552.66;5074224;28;20019;-26
2023/09/11 09:24:45;;;;;;;5.35;3.53;;;;;;;29.19;31.54;96546.25;5074498;28;20028;-28
2023/09/11 09:27:11;;;;;;;3.95;3.28;;;;;;;29.09;31.89;96548.06;5073854;28;20027;-27
2023/09/11 09:29:38;;;;;;;6.03;3.70;;;;;;;29.05;32.02;96542.09;5074402;28;20024;-28
2023/09/11 09:32:06;;;;;;;4.03;3.60;;;;;;;29.09;31.89;96550.84;5074056;28;20035;-27
2023/09/11 09:34:34;;;;;;;6.60;3.53;;;;;;;29.11;31.92;96542.69;5074131;28;20413;-29
2023/09/11 09:37:00;;;;;;;8.43;3.95;;;;;;;29.05;32.89;96533.72;5081372;28;20108;-27
2023/09/11 09:39:29;;;;;;;10.35;3.72;;;;;;;29.10;33.09;96532.81;5073961;28;20032;-28
2023/09/11 09:42:01;;;;;;;6.90;3.42;;;;;;;29.07;33.55;96539.47;5081659;28;20074;-28
2023/09/11 09:44:35;;;;;;;12.63;4.17;;;;;;;29.17;33.72;96529.34;5073753;28;20029;-28
2023/09/11 09:47:13;;;;;;;7.18;3.67;;;;;;;29.17;34.31;96540.50;5080836;28;20273;-28
2023/09/11 09:49:49;;;;;;;5.07;3.72;;;;;;;29.21;34.20;96526.91;5073622;28;20016;-29
2023/09/11 09:52:17;;;;;;;8.10;4.00;;;;;;;29.15;33.87;96527.09;5073679;28;20051;-28
2023/09/11 09:54:49;;;;;;;5.47;3.60;;;;;;;29.20;34.03;96522.63;5073216;28;20043;-28
2023/09/11 09:57:19;;;;;;;5.75;3.75;;;;;;;29.18;33.83;96536.38;5073693;28;20024;-28
2023/09/11 09:59:54;;;;;;;7.90;4.65;;;;;;;29.20;33.29;96528.22;5073738;28;20474;-27
2023/09/11 10:02:23;;;;;;;5.82;3.80;;;;;;;29.20;32.94;96542.94;5073789;28;20020;-28
2023/09/11 10:04:56;;;;;;;7.25;3.95;;;;;;;29.18;33.00;96523.16;5073789;28;20112;-28
2023/09/11 10:07:44;;;;;;;4.72;3.78;;;;;;;29.20;32.99;96517.03;5080842;28;20021;-28
2023/09/11 10:10:24;;;;;;;6.65;4.05;;;;;;;29.27;32.94;96525.47;5073317;28;20381;-27
2023/09/11 10:13:08;;;;;;;6.30;3.58;;;;;;;29.30;32.61;96518.78;5073710;28;20470;-28
2023/09/11 10:15:38;;;;;;;4.18;3.58;;;;;;;29.31;32.83;96523.06;5073426;28;20035;-28
2023/09/11 10:18:07;;;;;;;4.80;4.13;;;;;;;29.38;33.08;96521.66;5073323;28;20028;-29
2023/09/11 10:20:33;;;;;;;6.50;3.72;;;;;;;29.33;32.98;96522.53;5074028;28;20485;-27
2023/09/11 10:23:02;;;;;;;5.57;3.92;;;;;;;29.28;32.85;96509.47;5073187;28;20020;-28
2023/09/11 10:25:29;;;;;;;8.68;4.18;;;;;;;29.42;32.68;96510.88;5072880;28;20035;-28
2023/09/11 10:28:07;;;;;;;4.88;3.70;;;;;;;29.34;32.48;96515.63;5073221;28;20016;-27
2023/09/11 10:30:40;;;;;;;10.07;4.07;;;;;;;29.33;32.24;96508.56;5072926;28;20024;-28
2023/09/11 10:33:17;;;;;;;9.48;4.18;;;;;;;29.41;32.31;96512.19;5073054;28;20512;-28
2023/09/11 10:35:45;;;;;;;7.85;3.83;;;;;;;29.48;32.19;96503.06;5074820;28;20050;-28
2023/09/11 10:38:14;;;;;;;6.10;3.53;;;;;;;29.39;32.28;96511.22;5077809;28;20029;-27
2023/09/11 10:40:42;;;;;;;4.38;3.78;;;;;;;29.46;32.21;96508.47;5073182;28;20069;-27
2023/09/11 10:43:08;;;;;;;7.15;3.78;;;;;;;29.46;31.97;96508.47;5071543;28;20046;-28
2023/09/11 10:45:34;;;;;;;6.13;3.72;;;;;;;29.46;31.49;96505.66;5073113;28;20028;-29
2023/09/11 10:48:01;;;;;;;9.48;4.95;;;;;;;29.53;31.52;96502.19;5073413;28;20066;-27
2023/09/11 10:50:37;;;;;;;9.25;5.18;;;;;;;29.53;31.62;96498.63;5073046;28;20032;-28
2023/09/11 10:53:07;;;;;;;7.80;4.40;;;;;;;29.56;31.46;96495.47;5073485;28;20029;-29
2023/09/11 10:55:33;;;;;;;6.90;4.10;;;;;;;29.51;31.20;96496.38;5073499;28;20017;-30
2023/09/11 10:58:02;;;;;;;8.30;4.25;;;;;;;29.52;31.00;96481.13;5072771;28;20028;-28
2023/09/11 11:00:28;;;;;;;7.03;3.92;;;;;;;29.50;31.31;96485.75;5072176;28;20111;-28
2023/09/11 11:02:56;;;;;;;9.15;4.22;;;;;;;29.64;31.34;96482.28;5073339;28;20103;-28
2023/09/11 11:05:22;;;;;;;5.95;4.05;;;;;;;29.57;31.30;96487.81;5073098;28;20428;-27
2023/09/11 11:07:51;;;;;;;8.27;3.78;;;;;;;29.63;30.87;96474.44;5072919;28;20046;-27
2023/09/11 11:10:19;;;;;;;5.80;4.18;;;;;;;29.62;31.26;96490.47;5072586;28;20519;-28
2023/09/11 11:12:46;;;;;;;5.93;4.45;;;;;;;29.65;31.32;96478.19;5072948;28;20086;-28
2023/09/11 11:15:21;;;;;;;4.57;4.03;;;;;;;29.67;31.18;96481.16;5072790;28;20020;-29
2023/09/11 11:17:47;;;;;;;6.63;3.92;;;;;;;29.69;30.72;96471.47;5072621;28;20034;-29
2023/09/11 11:20:17;;;;;;;6.10;3.58;;;;;;;29.68;31.02;96470.72;5072680;28;20025;-28
2023/09/11 11:22:43;;;;;;;4.97;3.85;;;;;;;29.72;30.60;96470.38;5072517;28;20539;-28
2023/09/11 11:25:12;;;;;;;7.13;3.72;;;;;;;29.69;30.55;96477.06;5072785;28;20024;-29
2023/09/11 11:27:38;;;;;;;6.65;3.65;;;;;;;29.67;30.98;96471.31;5073382;28;20490;-28
2023/09/11 11:30:07;;;;;;;6.80;3.55;;;;;;;29.71;30.95;96468.88;5072712;28;20381;-28
2023/09/11 11:32:36;;;;;;;10.77;3.72;;;;;;;29.76;31.02;96467.97;5072669;28;20108;-28
2023/09/11 11:35:04;;;;;;;5.32;4.10;;;;;;;29.77;31.21;96469.47;5072684;28;20054;-29